In Rescue
 
Open Full Screen Window  High Contrast Mode
Wind Gusting 00 knots
08
May 13, 2021 11:04 AM CDT
Weather Information
Wind Direction
  250 °
Wind Speed
  08 kt (9 mph)
Wind Gust
  00 kt (0 mph)
Variable Wind
160°
280°
Altimeter
30.34 in
Visibility
10 SM
Temperature
18° C
64° F
Dewpoint
01° C
34° F
Humidity
32%
1hr Rain Fall
00.00 in.
24hr Rain Fall
00.00 in.
Sky Condition
Clear
VFR

METAR KJMR 131604Z AUTO 25008KT 160V280 10SM CLR 18/01 A3034 RMK AO2

FAA Disclaimer: The data displayed is for advisory purposes only and is not to be used for flight planning or operations.